HomeShort term forecast

Short term forecast

Graphical weather forecast for the next 48 hours for Montreal:
Short term forecast
This weather forecast is automatically refreshed every 3 hours.

Hourly Experimental Forecast for the next 48 hours

Overall summary: Rain (with a chance of 1–2 cm. of snow) until tonight.

 Date & Hour   Temp   Feel   Baro   Hum   Speed & Bearing   Wind Gust   Precip.%   Precip.   Visibility   Cloud cover   Conditions 
 30/11/2022 - 13:00  5.2°C  0.1°C  1000.7 hPa  98%  32.8 km/h   72.8 km/h  85%  2.72 mm/h  6.4km  100%  Rain and Windy 
 30/11/2022 - 14:00  5.8°C  1.0°C  998.9 hPa  98%  31.9 km/h   69.5 km/h  84%  2.89 mm/h  6.7km  100%  Rain and Windy 
 30/11/2022 - 15:00  6.4°C  2.1°C  997.9 hPa  98%  28.0 km/h   58.4 km/h  85%  3.28 mm/h  5.8km  100%  Rain 
 30/11/2022 - 16:00  7.2°C  3.4°C  997.2 hPa  97%  25.0 km/h   51.3 km/h  80%  2.11 mm/h  9.5km  100%  Rain 
 30/11/2022 - 17:00  7.8°C  3.8°C  997.5 hPa  92%  30.1 km/h   58.1 km/h  77%  1.58 mm/h  10.0km  100%  Rain 
 30/11/2022 - 18:00  6.5°C  1.7°C  998.7 hPa  90%  34.2 km/h   63.4 km/h  69%  0.79 mm/h  14.7km  100%  Light Rain and Windy 
 30/11/2022 - 19:00  5.6°C  0.5°C  1000.1 hPa  88%  34.3 km/h   62.5 km/h  51%  0.36 mm/h  16.1km  100%  Possible Light Rain 
 30/11/2022 - 20:00  4.7°C  -0.6°C  1001.3 hPa  85%  32.8 km/h   57.9 km/h  50%  0.57 mm/h  16.1km  94%  Possible Light Rain 
 30/11/2022 - 21:00  3.7°C  -1.7°C  1002.2 hPa  82%  30.7 km/h   57.2 km/h  40%  0.24 mm/h  16.1km  84%  Possible Light Rain 
 30/11/2022 - 22:00  2.8°C  -2.8°C  1003.1 hPa  79%  29.6 km/h   55.4 km/h  27%  0.28 mm/h  16.1km  63%  Possible Light Rain 
 30/11/2022 - 23:00  2.2°C  -3.5°C  1003.5 hPa  79%  28.7 km/h   55.2 km/h  20%  0.24 mm/h  16.1km  72%  Mostly Cloudy 
 01/12/2022 - 00:00  1.8°C  -4.0°C  1003.7 hPa  78%  28.3 km/h   55.3 km/h  11%  0.25 mm/h  16.1km  50%  Partly Cloudy 
 01/12/2022 - 01:00  1.3°C  -4.4°C  1004.1 hPa  75%  26.9 km/h   52.7 km/h  7%  0.18 mm/h  16.1km  64%  Mostly Cloudy 
 01/12/2022 - 02:00  1.1°C  -4.8°C  1004.8 hPa  73%  27.6 km/h   48.3 km/h  6%  0.21 mm/h  16.1km  48%  Partly Cloudy 
 01/12/2022 - 03:00  0.9°C  -5.1°C  1005.1 hPa  72%  27.4 km/h   49.0 km/h  6%  0.22 mm/h  16.1km  54%  Partly Cloudy 
 01/12/2022 - 04:00  0.6°C  -5.5°C  1005.5 hPa  72%  27.6 km/h   49.7 km/h  5%  0.20 mm/h  16.1km  52%  Partly Cloudy 
 01/12/2022 - 05:00  0.2°C  -6.0°C  1005.9 hPa  72%  28.9 km/h   51.4 km/h  4%  0.17 mm/h  16.1km  42%  Partly Cloudy 
 01/12/2022 - 06:00  0.0°C  -6.5°C  1006.3 hPa  73%  30.5 km/h   53.3 km/h  4%  0.13 mm/h  16.1km  62%  Mostly Cloudy 
 01/12/2022 - 07:00  -0.4°C  -7.3°C  1006.3 hPa  74%  33.5 km/h   61.2 km/h  3%  0.03 mm/h  15.9km  65%  Mostly Cloudy 
 01/12/2022 - 08:00  -0.6°C  -7.7°C  1007.4 hPa  82%  34.1 km/h   60.9 km/h  6%  0.06 mm/h  7.5km  81%  Mostly Cloudy 
 01/12/2022 - 09:00  -0.5°C  -7.5°C  1008.9 hPa  88%  33.9 km/h   60.2 km/h  20%  0.25 mm/h  4.7km  92%  Overcast 
 01/12/2022 - 10:00  -0.2°C  -7.2°C  1010.4 hPa  84%  35.0 km/h   58.4 km/h  19%  0.22 mm/h  12.4km  97%  Overcast 
 01/12/2022 - 11:00  0.3°C  -6.6°C  1011.9 hPa  79%  35.5 km/h   57.7 km/h  13%  0.11 mm/h  14.8km  89%  Overcast 
 01/12/2022 - 12:00  0.6°C  -6.3°C  1013.3 hPa  70%  35.9 km/h   57.9 km/h  6%  0.05 mm/h  16.1km  96%  Overcast 
 01/12/2022 - 13:00  0.9°C  -5.8°C  1014.8 hPa  64%  34.9 km/h   54.7 km/h  4%  0.02 mm/h  16.1km  85%  Mostly Cloudy 
 01/12/2022 - 14:00  0.6°C  -6.0°C  1016.2 hPa  64%  32.8 km/h   52.7 km/h  3%  0.01 mm/h  16.1km  85%  Mostly Cloudy 
 01/12/2022 - 15:00  0.2°C  -6.1°C  1017.9 hPa  63%  29.0 km/h   51.3 km/h  3%  0.01 mm/h  16.1km  84%  Mostly Cloudy 
 01/12/2022 - 16:00  -0.5°C  -6.8°C  1019.7 hPa  66%  27.1 km/h   50.5 km/h  2%  0.01 mm/h  16.1km  82%  Mostly Cloudy 
 01/12/2022 - 17:00  -0.6°C  -6.8°C  1021.3 hPa  65%  25.8 km/h   50.0 km/h  0%  --  16.1km  70%  Mostly Cloudy 
 01/12/2022 - 18:00  -0.8°C  -6.8°C  1022.9 hPa  65%  24.6 km/h   52.0 km/h  0%  --  16.1km  55%  Partly Cloudy 
 01/12/2022 - 19:00  -0.7°C  -6.6°C  1024.0 hPa  66%  23.7 km/h   50.9 km/h  0%  --  16.1km  50%  Partly Cloudy 
 01/12/2022 - 20:00  -0.7°C  -6.4°C  1024.9 hPa  65%  22.3 km/h   48.3 km/h  0%  --  16.1km  53%  Partly Cloudy 
 01/12/2022 - 21:00  -0.7°C  -6.3°C  1025.7 hPa  66%  20.8 km/h   45.1 km/h  0%  --  16.1km  60%  Mostly Cloudy 
 01/12/2022 - 22:00  -0.9°C  -6.3°C  1026.5 hPa  66%  19.2 km/h   42.4 km/h  0%  --  16.1km  56%  Partly Cloudy 
 01/12/2022 - 23:00  -1.1°C  -6.2°C  1027.1 hPa  67%  17.6 km/h   39.0 km/h  0%  --  16.1km  31%  Clear 
 02/12/2022 - 00:00  -1.2°C  -6.0°C  1027.6 hPa  69%  16.0 km/h   35.6 km/h  0%  --  16.1km  33%  Partly Cloudy 
 02/12/2022 - 01:00  -1.3°C  -6.0°C  1028.1 hPa  70%  15.0 km/h   33.1 km/h  0%  --  16.1km  31%  Partly Cloudy 
 02/12/2022 - 02:00  -1.5°C  -6.0°C  1028.5 hPa  72%  13.8 km/h   29.6 km/h  0%  --  16.1km  19%  Clear 
 02/12/2022 - 03:00  -1.7°C  -6.0°C  1028.7 hPa  73%  12.8 km/h   27.4 km/h  0%  --  16.1km  60%  Mostly Cloudy 
 02/12/2022 - 04:00  -1.9°C  -6.0°C  1028.8 hPa  74%  12.0 km/h   25.7 km/h  0%  --  16.1km  48%  Partly Cloudy 
 02/12/2022 - 05:00  -2.1°C  -6.1°C  1029.2 hPa  74%  11.0 km/h   24.4 km/h  0%  --  16.1km  67%  Mostly Cloudy 
 02/12/2022 - 06:00  -2.3°C  -6.1°C  1029.6 hPa  73%  10.1 km/h   23.6 km/h  0%  --  16.1km  67%  Mostly Cloudy 
 02/12/2022 - 07:00  -2.2°C  -5.9°C  1029.5 hPa  74%  9.8 km/h   23.4 km/h  0%  --  16.1km  68%  Mostly Cloudy 
 02/12/2022 - 08:00  -1.8°C  -5.5°C  1029.4 hPa  75%  10.2 km/h   23.3 km/h  0%  --  16.1km  74%  Mostly Cloudy 
 02/12/2022 - 09:00  -1.0°C  -4.9°C  1029.2 hPa  75%  11.4 km/h   22.7 km/h  0%  --  16.1km  78%  Mostly Cloudy 
 02/12/2022 - 10:00  0.0°C  -3.9°C  1029.0 hPa  75%  12.5 km/h   22.7 km/h  0%  --  16.1km  77%  Mostly Cloudy 
 02/12/2022 - 11:00  1.2°C  -2.5°C  1028.3 hPa  72%  13.0 km/h   22.5 km/h  0%  --  16.1km  75%  Mostly Cloudy 
 02/12/2022 - 12:00  2.4°C  -1.2°C  1027.3 hPa  70%  13.6 km/h   22.2 km/h  0%  --  16.1km  65%  Mostly Cloudy 

 

Past weather and reports

Past weatherFind in this section the past weather conditions, weather archive, graphics, reports and statistics.

Current conditions

Current weather condition for MontrealAll you need to know about the current weather conditions for Montreal. Weather data is updated every 10 minutes.

Weather forecast

Current Montreal weatherSince 2004, celinium.com website has provided accurate weather forecast for Montreal's island.